Time;durP1;ratioP1;P1;durP2;ratioP2;P2;SDS_P1;SDS_P2;PMS_P1;PMS_P2;Temp;Humidity;BMP_temperature;BMP_pressure;BME280_temperature;BME280_humidity;BME280_pressure;Samples;Min_cycle;Max_cycle;Signal;HPM_P1;HPM_P2
2022/01/17 00:01:18;;;;;;;9.68;6.67;;;;;;;5.98;45.87;101973.69;1684660;83;21055;-52
2022/01/17 00:03:45;;;;;;;12.07;7.00;;;;;;;5.99;45.83;101975.44;1678764;83;21030;-51
2022/01/17 00:06:12;;;;;;;10.23;6.75;;;;;;;5.98;45.87;101967.22;1700697;83;21096;-51
2022/01/17 00:08:42;;;;;;;10.85;7.15;;;;;;;5.96;45.93;101970.20;1682087;83;21002;-51
2022/01/17 00:11:11;;;;;;;14.10;6.78;;;;;;;5.96;45.93;101971.50;1679399;83;21153;-51
2022/01/17 00:13:39;;;;;;;12.18;7.03;;;;;;;5.95;46.08;101965.91;1690058;83;21079;-51
2022/01/17 00:16:33;;;;;;;9.50;6.90;;;;;;;5.94;46.20;101964.15;1687881;83;21077;-51
2022/01/17 00:19:07;;;;;;;10.03;7.00;;;;;;;5.93;46.31;101960.26;1690251;83;21558;-51
2022/01/17 00:21:21;;;;;;;11.50;7.00;;;;;;;5.91;46.36;101961.53;1681632;83;21084;-51
2022/01/17 00:23:49;;;;;;;11.48;7.17;;;;;;;5.92;46.40;101958.50;1702059;82;21033;-51
2022/01/17 00:26:15;;;;;;;11.08;7.05;;;;;;;5.92;46.44;101956.80;1695271;83;21009;-51
2022/01/17 00:28:42;;;;;;;12.63;7.75;;;;;;;5.91;46.49;101949.03;1686925;83;21053;-52
2022/01/17 00:31:08;;;;;;;13.40;8.23;;;;;;;5.92;46.45;101942.59;1683900;83;21038;-51
2022/01/17 00:33:35;;;;;;;9.53;7.05;;;;;;;5.91;46.48;101936.99;1694758;83;21141;-52
2022/01/17 00:36:02;;;;;;;14.10;7.40;;;;;;;5.91;46.56;101936.11;1694598;83;21035;-51
2022/01/17 00:38:28;;;;;;;11.20;7.00;;;;;;;5.89;46.65;101928.34;1683866;83;21052;-51
2022/01/17 00:40:55;;;;;;;12.78;7.62;;;;;;;5.89;46.69;101923.59;1680022;83;21003;-51
2022/01/17 00:43:21;;;;;;;11.05;7.47;;;;;;;5.87;46.80;101917.13;1684872;83;21029;-51
2022/01/17 00:45:47;;;;;;;13.20;8.10;;;;;;;5.89;46.72;101911.56;1699575;83;20966;-51
2022/01/17 00:48:14;;;;;;;11.40;7.78;;;;;;;5.92;46.64;101914.17;1686728;83;21055;-52
2022/01/17 00:50:40;;;;;;;18.15;8.45;;;;;;;5.94;46.58;101912.48;1689356;83;21133;-51
2022/01/17 00:53:07;;;;;;;14.03;8.48;;;;;;;5.95;46.49;101911.65;1682148;83;21081;-51
2022/01/17 00:55:36;;;;;;;11.63;8.60;;;;;;;5.96;46.44;101910.79;1678032;84;21057;-51
2022/01/17 00:58:03;;;;;;;14.65;8.08;;;;;;;5.99;46.43;101904.39;1682954;83;21034;-51
2022/01/17 01:00:30;;;;;;;14.15;8.90;;;;;;;6.02;46.42;101899.25;1694329;82;21030;-51
2022/01/17 01:02:57;;;;;;;12.50;8.40;;;;;;;6.03;46.52;101885.51;1697381;83;21061;-51
2022/01/17 01:05:23;;;;;;;12.33;8.50;;;;;;;6.07;46.61;101879.95;1678954;83;21070;-51
2022/01/17 01:07:51;;;;;;;12.18;8.90;;;;;;;6.09;46.66;101876.55;1693463;83;21135;-51
2022/01/17 01:10:20;;;;;;;13.50;10.00;;;;;;;6.12;46.64;101871.41;1687140;83;21061;-51
2022/01/17 01:12:48;;;;;;;13.85;9.93;;;;;;;6.14;46.66;101860.66;1692555;83;21081;-51
2022/01/17 01:15:44;;;;;;;13.78;9.20;;;;;;;6.16;46.68;101852.51;1682354;83;21010;-52
2022/01/17 01:17:58;;;;;;;16.25;10.10;;;;;;;6.20;46.80;101850.41;1685169;83;21102;-52
2022/01/17 01:20:53;;;;;;;15.08;9.83;;;;;;;6.22;46.92;101843.99;1684643;83;21542;-51
2022/01/17 01:28:24;;;;;;;16.23;10.13;;;;;;;6.29;47.27;101823.41;1677166;83;21006;-52
2022/01/17 01:30:53;;;;;;;15.65;10.30;;;;;;;6.31;47.29;101811.37;1694657;83;21107;-51
2022/01/17 01:36:00;;;;;;;14.87;9.95;;;;;;;6.32;47.61;101806.66;1635614;88;21113;-51
2022/01/17 01:38:21;;;;;;;18.27;10.93;;;;;;;6.33;47.74;101798.03;1636641;88;21108;-51
2022/01/17 01:40:48;;;;;;;16.23;10.60;;;;;;;6.34;47.85;101782.98;1636350;88;21057;-51
2022/01/17 01:43:15;;;;;;;17.12;10.35;;;;;;;6.36;48.07;101782.58;1636506;86;21099;-51
2022/01/17 01:45:43;;;;;;;22.87;11.35;;;;;;;6.40;48.18;101784.34;1636767;88;21081;-51
2022/01/17 01:48:12;;;;;;;20.50;11.45;;;;;;;6.42;48.53;101774.89;1633398;86;21537;-51
2022/01/17 01:50:38;;;;;;;15.40;10.53;;;;;;;6.45;48.74;101768.45;1636677;88;21045;-51
2022/01/17 01:53:04;;;;;;;15.88;10.23;;;;;;;6.47;48.85;101757.69;1637056;88;21108;-51
2022/01/17 01:55:31;;;;;;;16.97;10.95;;;;;;;6.48;49.01;101759.44;1637018;88;21058;-51
2022/01/17 01:57:58;;;;;;;16.97;10.28;;;;;;;6.50;49.07;101764.20;1636833;88;21022;-52
2022/01/17 02:00:24;;;;;;;15.05;9.60;;;;;;;6.52;49.12;101759.92;1636537;88;21553;-51
2022/01/17 02:02:50;;;;;;;16.02;10.30;;;;;;;6.54;49.30;101751.75;1636602;86;21550;-52
2022/01/17 02:05:17;;;;;;;15.93;9.65;;;;;;;6.54;49.48;101742.70;1635410;88;21569;-51
2022/01/17 02:07:45;;;;;;;18.55;10.23;;;;;;;6.55;49.70;101736.66;1637032;87;21066;-51
2022/01/17 02:10:12;;;;;;;18.70;10.18;;;;;;;6.57;49.87;101732.38;1636438;88;21046;-51
2022/01/17 02:12:39;;;;;;;16.20;9.73;;;;;;;6.58;50.00;101728.95;1636737;88;21042;-51
2022/01/17 02:15:15;;;;;;;22.98;11.18;;;;;;;6.59;50.17;101719.03;1636673;88;21002;-51
2022/01/17 02:17:54;;;;;;;17.17;11.68;;;;;;;6.61;50.31;101724.23;1634345;88;21058;-51
2022/01/17 02:20:22;;;;;;;12.95;9.88;;;;;;;6.63;50.46;101722.95;1633491;88;21038;-51
2022/01/17 02:22:52;;;;;;;16.35;9.28;;;;;;;6.66;50.41;101726.88;1636519;86;21046;-51
2022/01/17 02:25:18;;;;;;;17.27;9.78;;;;;;;6.68;50.50;101718.70;1636516;88;20995;-51
2022/01/17 02:27:45;;;;;;;14.65;10.50;;;;;;;6.72;50.80;101721.76;1636632;88;21114;-52
2022/01/17 02:30:13;;;;;;;17.37;10.98;;;;;;;6.77;50.84;101718.77;1636424;88;21062;-51
2022/01/17 02:32:40;;;;;;;19.30;11.12;;;;;;;6.80;50.72;101712.34;1679659;83;21038;-51
2022/01/17 02:35:22;;;;;;;18.98;10.72;;;;;;;6.84;50.95;101708.48;1685113;83;21038;-52
2022/01/17 02:37:48;;;;;;;17.00;11.10;;;;;;;6.88;51.15;101706.80;1659244;85;21499;-51
2022/01/17 02:40:17;;;;;;;21.25;10.90;;;;;;;6.91;51.11;101702.52;1657749;85;21514;-52
2022/01/17 02:42:46;;;;;;;15.30;10.32;;;;;;;6.94;51.15;101697.80;1652640;85;21050;-51
2022/01/17 02:45:31;;;;;;;18.70;11.03;;;;;;;6.97;51.18;101701.69;1656983;85;21139;-51
2022/01/17 02:47:47;;;;;;;21.30;11.55;;;;;;;6.99;51.20;101689.62;1635522;85;21837;-51
2022/01/17 02:50:13;;;;;;;17.30;10.88;;;;;;;7.00;51.28;101692.25;1662541;85;21580;-51
2022/01/17 02:52:40;;;;;;;20.55;11.40;;;;;;;7.02;51.35;101692.25;1653314;85;21125;-52
2022/01/17 02:55:07;;;;;;;20.02;11.08;;;;;;;7.06;51.17;101686.25;1654103;85;21078;-52
2022/01/17 02:57:34;;;;;;;18.15;10.70;;;;;;;7.10;51.11;101690.59;1656279;85;21002;-52
2022/01/17 03:00:00;;;;;;;16.48;9.58;;;;;;;7.12;51.10;101690.17;1655444;85;21114;-52
2022/01/17 03:02:27;;;;;;;16.40;10.32;;;;;;;7.16;51.06;101695.80;1661099;85;21063;-52
2022/01/17 03:04:54;;;;;;;14.40;11.43;;;;;;;7.19;50.80;101693.25;1654537;85;21102;-52
2022/01/17 03:07:21;;;;;;;16.85;11.05;;;;;;;7.22;50.58;101688.08;1659834;85;21079;-52
2022/01/17 03:10:01;;;;;;;17.55;10.38;;;;;;;7.23;50.35;101688.53;1654869;85;21062;-51
2022/01/17 03:12:16;;;;;;;15.60;11.28;;;;;;;7.21;50.25;101687.66;1666706;85;21052;-52
2022/01/17 03:14:42;;;;;;;17.15;11.12;;;;;;;7.18;50.19;101681.15;1660197;85;21025;-52
2022/01/17 03:17:09;;;;;;;15.20;11.50;;;;;;;7.15;50.24;101682.44;1646089;84;21037;-51
2022/01/17 03:19:35;;;;;;;17.50;10.75;;;;;;;7.13;50.17;101669.92;1662906;85;21098;-51
2022/01/17 03:22:03;;;;;;;18.67;11.75;;;;;;;7.11;50.24;101669.05;1663619;85;21134;-52
2022/01/17 03:24:29;;;;;;;13.68;11.25;;;;;;;7.07;50.27;101655.19;1655989;85;21519;-52
2022/01/17 03:26:56;;;;;;;14.75;10.70;;;;;;;7.06;50.34;101653.48;1657932;85;21018;-51
2022/01/17 03:29:22;;;;;;;17.82;11.28;;;;;;;7.04;50.36;101656.91;1653709;85;21010;-52
2022/01/17 03:31:49;;;;;;;14.83;11.18;;;;;;;7.06;50.29;101651.31;1661968;85;21063;-51
2022/01/17 03:34:15;;;;;;;21.00;12.78;;;;;;;7.03;50.27;101645.67;1659094;83;21027;-52
2022/01/17 03:36:44;;;;;;;18.05;11.53;;;;;;;7.02;50.26;101642.67;1697329;83;21074;-52
2022/01/17 03:39:11;;;;;;;15.35;11.50;;;;;;;7.00;50.33;101645.67;1669784;83;21116;-52
2022/01/17 03:41:37;;;;;;;17.32;11.35;;;;;;;6.98;50.35;101644.80;1692360;83;21085;-53
2022/01/17 03:44:06;;;;;;;17.73;12.78;;;;;;;6.97;50.43;101637.88;1697285;83;21054;-52
2022/01/17 03:46:32;;;;;;;17.23;12.70;;;;;;;6.96;50.47;101632.70;1686683;83;21094;-52
2022/01/17 03:48:58;;;;;;;19.60;13.00;;;;;;;6.95;50.45;101625.78;1685833;83;21049;-52
2022/01/17 03:51:25;;;;;;;17.30;12.82;;;;;;;6.95;50.51;101630.95;1680689;83;21053;-52
2022/01/17 03:53:52;;;;;;;15.78;11.75;;;;;;;6.95;50.50;101629.66;1685471;83;21068;-52
2022/01/17 03:56:18;;;;;;;15.78;12.05;;;;;;;6.94;50.57;101626.65;1689311;83;21034;-51
2022/01/17 03:58:46;;;;;;;16.45;12.00;;;;;;;6.93;50.50;101622.31;1704741;83;21042;-52
2022/01/17 04:01:13;;;;;;;15.78;11.40;;;;;;;6.91;50.60;101609.80;1701519;83;21029;-52
2022/01/17 04:03:40;;;;;;;19.05;12.20;;;;;;;6.91;50.65;101608.50;1709793;82;21070;-52
2022/01/17 04:06:06;;;;;;;17.32;11.12;;;;;;;6.93;50.71;101604.20;1699735;83;21105;-52
2022/01/17 04:08:34;;;;;;;17.35;12.33;;;;;;;6.93;50.74;101600.32;1673391;85;21118;-51
2022/01/17 04:11:00;;;;;;;18.67;11.65;;;;;;;6.95;50.75;101594.73;1682454;84;21035;-52
2022/01/17 04:13:28;;;;;;;18.50;11.70;;;;;;;6.97;50.80;101595.60;1687615;83;21006;-52
2022/01/17 04:15:55;;;;;;;17.10;11.65;;;;;;;7.00;50.79;101585.29;1683957;82;21081;-51
2022/01/17 04:18:23;;;;;;;19.20;12.10;;;;;;;7.02;50.76;101584.87;1699722;83;21006;-52
2022/01/17 04:20:50;;;;;;;15.78;11.65;;;;;;;7.05;50.72;101590.05;1675264;83;21058;-53
2022/01/17 04:23:18;;;;;;;14.80;11.03;;;;;;;7.06;50.69;101582.73;1683478;83;21063;-51
2022/01/17 04:25:44;;;;;;;15.35;11.08;;;;;;;7.06;50.64;101575.84;1683572;83;21009;-52
2022/01/17 04:28:12;;;;;;;16.60;11.25;;;;;;;7.08;50.53;101581.02;1699657;83;21010;-51
2022/01/17 04:30:40;;;;;;;19.20;11.25;;;;;;;7.10;50.42;101570.25;1692459;83;21071;-53
2022/01/17 04:33:06;;;;;;;19.23;11.65;;;;;;;7.14;50.29;101566.81;1693772;83;21152;-52
2022/01/17 04:35:34;;;;;;;15.50;11.08;;;;;;;7.16;50.11;101563.80;1686014;83;21140;-51
2022/01/17 04:38:05;;;;;;;16.00;11.22;;;;;;;7.18;49.91;101558.20;1678399;83;21050;-51
2022/01/17 04:40:37;;;;;;;13.65;10.25;;;;;;;7.19;49.66;101556.07;1690553;83;21100;-52
2022/01/17 04:43:17;;;;;;;14.33;10.43;;;;;;;7.21;49.49;101549.18;1688737;83;21088;-52
2022/01/17 04:45:38;;;;;;;13.62;10.65;;;;;;;7.18;49.45;101549.14;1689334;83;21002;-52
2022/01/17 04:48:05;;;;;;;15.60;11.38;;;;;;;7.17;49.52;101546.14;1688946;83;21129;-51
2022/01/17 04:50:31;;;;;;;15.45;10.82;;;;;;;7.15;49.58;101547.86;1681022;83;21522;-51
2022/01/17 04:53:00;;;;;;;19.23;10.43;;;;;;;7.14;49.69;101543.10;1676372;83;21563;-52
2022/01/17 04:55:26;;;;;;;18.12;11.12;;;;;;;7.14;49.85;101543.10;1680019;83;21129;-52
2022/01/17 04:57:53;;;;;;;13.05;10.55;;;;;;;7.15;50.03;101542.23;1690529;83;21101;-52
2022/01/17 05:00:20;;;;;;;15.85;11.00;;;;;;;7.17;50.21;101541.80;1684634;83;21027;-52
2022/01/17 05:02:47;;;;;;;14.47;11.18;;;;;;;7.20;50.30;101544.84;1693982;83;21098;-52
2022/01/17 05:05:14;;;;;;;16.42;10.60;;;;;;;7.23;50.33;101530.63;1703963;83;21046;-51
2022/01/17 05:07:40;;;;;;;16.65;11.48;;;;;;;7.25;50.42;101530.21;1688184;83;21073;-52
2022/01/17 05:10:13;;;;;;;17.95;11.35;;;;;;;7.26;50.47;101531.92;1682683;83;21081;-53
2022/01/17 05:12:40;;;;;;;18.82;10.45;;;;;;;7.28;50.46;101525.03;1697083;83;21009;-51
2022/01/17 05:17:43;;;;;;;15.45;11.38;;;;;;;7.26;50.41;101518.98;1651248;86;21044;-52
2022/01/17 05:20:07;;;;;;;14.60;9.50;;;;;;;7.26;50.35;101513.80;1636225;86;21569;-52
2022/01/17 05:22:34;;;;;;;13.90;10.65;;;;;;;7.26;50.29;101509.92;1633361;86;21094;-52
2022/01/17 05:25:04;;;;;;;14.65;9.65;;;;;;;7.26;50.26;101503.45;1643785;86;21107;-52
2022/01/17 05:27:31;;;;;;;17.37;9.93;;;;;;;7.29;50.18;101502.19;1600455;87;21139;-52
2022/01/17 05:29:57;;;;;;;16.67;10.32;;;;;;;7.28;50.30;101487.07;1599157;88;21162;-52
2022/01/17 05:32:23;;;;;;;16.93;10.80;;;;;;;7.34;50.33;101484.50;1599415;88;21011;-51
2022/01/17 05:34:50;;;;;;;14.78;10.63;;;;;;;7.36;50.31;101485.37;1591266;88;21123;-52
2022/01/17 05:37:17;;;;;;;19.67;10.65;;;;;;;7.37;50.40;101478.47;1593135;88;21078;-52
2022/01/17 05:39:43;;;;;;;15.28;9.68;;;;;;;7.38;50.39;101472.42;1585926;89;21118;-52
2022/01/17 05:42:14;;;;;;;14.95;10.58;;;;;;;7.38;50.39;101470.70;1613120;88;21566;-52
2022/01/17 05:44:39;;;;;;;16.48;10.63;;;;;;;7.38;50.44;101467.23;1597492;88;21094;-52
2022/01/17 05:47:06;;;;;;;14.80;10.58;;;;;;;7.39;50.54;101462.52;1599125;88;21034;-51
2022/01/17 05:49:33;;;;;;;17.65;10.98;;;;;;;7.39;50.54;101463.38;1594739;88;21569;-52
2022/01/17 05:51:59;;;;;;;14.75;9.65;;;;;;;7.41;50.58;101449.14;1590054;88;21006;-51
2022/01/17 05:54:26;;;;;;;14.25;10.30;;;;;;;7.43;50.52;101452.59;1600743;88;21081;-52
2022/01/17 05:56:52;;;;;;;13.90;10.55;;;;;;;7.48;50.33;101451.31;1600302;88;21031;-52
2022/01/17 05:59:18;;;;;;;14.65;10.30;;;;;;;7.50;50.20;101450.89;1614091;88;21111;-51
2022/01/17 06:01:45;;;;;;;15.70;10.38;;;;;;;7.51;50.04;101444.41;1597496;88;21108;-52
2022/01/17 06:04:11;;;;;;;18.10;9.75;;;;;;;7.52;49.99;101441.39;1580740;88;21563;-52
2022/01/17 06:06:38;;;;;;;15.55;9.75;;;;;;;7.52;49.96;101437.09;1596119;88;21563;-52
2022/01/17 06:09:05;;;;;;;16.37;9.73;;;;;;;7.52;49.93;101433.20;1621155;88;21598;-52
2022/01/17 06:11:33;;;;;;;17.55;10.13;;;;;;;7.51;49.93;101432.75;1567744;90;21057;-52
2022/01/17 06:14:00;;;;;;;14.00;8.88;;;;;;;7.51;49.87;101431.45;1565338;90;21743;-52
2022/01/17 06:16:26;;;;;;;16.77;9.98;;;;;;;7.52;49.86;101422.84;1619727;87;21501;-52
2022/01/17 06:18:54;;;;;;;13.62;8.63;;;;;;;7.54;49.71;101421.55;1619741;87;21101;-53
2022/01/17 06:21:21;;;;;;;15.48;9.40;;;;;;;7.55;49.48;101420.24;1612298;87;21097;-51
2022/01/17 06:23:47;;;;;;;14.90;9.53;;;;;;;7.55;49.38;101413.77;1632694;83;21031;-52
2022/01/17 06:26:14;;;;;;;14.70;9.90;;;;;;;7.59;49.19;101412.03;1680762;83;21041;-52
2022/01/17 06:28:41;;;;;;;12.93;9.28;;;;;;;7.59;49.01;101406.43;1680840;84;21633;-51
2022/01/17 06:31:07;;;;;;;12.65;9.53;;;;;;;7.60;48.87;101393.93;1699533;82;21015;-52
2022/01/17 06:33:33;;;;;;;14.80;9.18;;;;;;;7.60;48.83;101393.93;1687377;83;21042;-52
2022/01/17 06:36:00;;;;;;;12.20;9.00;;;;;;;7.60;48.80;101389.17;1686638;83;21069;-52
2022/01/17 06:38:26;;;;;;;17.45;9.83;;;;;;;7.60;48.85;101383.57;1682474;83;21039;-53
2022/01/17 06:40:53;;;;;;;14.35;9.53;;;;;;;7.59;48.87;101377.95;1679923;83;21100;-52
2022/01/17 06:43:19;;;;;;;16.93;9.65;;;;;;;7.60;48.98;101374.50;1677057;84;21014;-52
2022/01/17 06:45:45;;;;;;;14.03;9.15;;;;;;;7.63;48.90;101375.78;1680001;83;20998;-52
2022/01/17 06:48:12;;;;;;;13.90;9.80;;;;;;;7.63;48.94;101369.31;1698498;83;21550;-52
2022/01/17 06:50:39;;;;;;;14.30;9.83;;;;;;;7.65;48.84;101375.77;1680695;83;21542;-52
2022/01/17 06:53:05;;;;;;;14.33;9.68;;;;;;;7.64;48.82;101367.59;1687402;83;21060;-52
2022/01/17 06:55:33;;;;;;;13.95;9.95;;;;;;;7.63;48.78;101362.84;1685686;83;21136;-51
2022/01/17 06:57:59;;;;;;;20.32;12.37;;;;;;;7.62;48.69;101359.83;1683363;84;21049;-51
2022/01/17 07:00:25;;;;;;;17.17;11.43;;;;;;;7.61;48.49;101356.79;1684012;83;21029;-51
2022/01/17 07:02:52;;;;;;;15.60;10.80;;;;;;;7.61;48.34;101349.02;1709769;83;21062;-52
2022/01/17 07:05:20;;;;;;;15.55;11.10;;;;;;;7.61;48.16;101338.66;1689598;83;21078;-51
2022/01/17 07:07:47;;;;;;;15.35;11.05;;;;;;;7.61;47.99;101319.66;1678853;83;21544;-52
2022/01/17 07:10:13;;;;;;;16.07;11.38;;;;;;;7.61;47.78;101311.47;1690846;83;21062;-52
2022/01/17 07:12:41;;;;;;;17.48;11.10;;;;;;;7.59;47.67;101296.36;1689228;83;21042;-51
2022/01/17 07:15:09;;;;;;;18.12;10.48;;;;;;;7.58;47.50;101280.41;1699121;83;21076;-52
2022/01/17 07:17:35;;;;;;;14.65;10.85;;;;;;;7.54;47.37;101261.86;1702938;83;21511;-52
2022/01/17 07:20:04;;;;;;;16.40;11.00;;;;;;;7.51;47.27;101259.26;1678576;83;21549;-52
2022/01/17 07:22:32;;;;;;;18.67;10.82;;;;;;;7.49;47.18;101251.92;1675797;83;21521;-53
2022/01/17 07:25:00;;;;;;;15.00;11.35;;;;;;;7.47;47.17;101239.84;1691840;83;21002;-51
2022/01/17 07:27:26;;;;;;;15.63;11.20;;;;;;;7.45;47.14;101246.75;1700888;83;21176;-51
2022/01/17 07:29:53;;;;;;;15.45;11.40;;;;;;;7.43;47.15;101283.00;1682738;83;21006;-52
2022/01/17 07:32:19;;;;;;;15.63;11.53;;;;;;;7.42;47.16;101303.27;1687243;84;21029;-52
2022/01/17 07:34:46;;;;;;;18.30;11.57;;;;;;;7.43;47.15;101341.68;1691601;83;21022;-51
2022/01/17 07:37:12;;;;;;;13.93;10.43;;;;;;;7.42;47.16;101365.41;1683122;83;21507;-51
2022/01/17 07:39:39;;;;;;;14.78;10.50;;;;;;;7.43;46.96;101355.92;1680620;83;21061;-51
2022/01/17 07:42:07;;;;;;;14.90;11.03;;;;;;;7.43;46.90;101333.49;1684625;83;21482;-51
2022/01/17 07:44:34;;;;;;;19.60;13.30;;;;;;;7.44;46.64;101293.77;1684369;83;21041;-52
2022/01/17 07:47:02;;;;;;;16.77;13.20;;;;;;;7.45;46.46;101259.27;1689508;83;21026;-52
2022/01/17 07:49:29;;;;;;;18.95;12.63;;;;;;;7.46;46.32;101235.08;1679880;83;21541;-51
2022/01/17 07:52:03;;;;;;;17.52;11.30;;;;;;;7.47;46.32;101223.87;1697395;83;21620;-51
2022/01/17 07:54:33;;;;;;;18.25;12.60;;;;;;;7.47;46.21;101226.47;1618330;86;21007;-51
2022/01/17 07:57:00;;;;;;;15.15;11.08;;;;;;;7.50;46.12;101254.92;1623063;86;21023;-51
2022/01/17 07:59:27;;;;;;;16.67;10.93;;;;;;;7.51;45.94;101287.74;1626429;86;21031;-52
2022/01/17 08:01:54;;;;;;;14.35;10.32;;;;;;;7.52;45.91;101343.86;1644049;87;20999;-51
2022/01/17 08:04:20;;;;;;;12.55;10.13;;;;;;;7.53;45.88;101355.94;1646899;86;21057;-51
2022/01/17 08:06:49;;;;;;;14.23;11.18;;;;;;;7.54;45.76;101347.31;1621870;86;21093;-52
2022/01/17 08:09:29;;;;;;;16.02;12.00;;;;;;;7.57;45.70;101349.89;1614266;86;21590;-51
2022/01/17 08:11:58;;;;;;;14.90;11.03;;;;;;;7.58;45.58;101369.76;1612533;88;21102;-51
2022/01/17 08:14:26;;;;;;;16.82;11.63;;;;;;;7.58;45.52;101335.22;1597996;89;21094;-52
2022/01/17 08:16:54;;;;;;;17.65;12.98;;;;;;;7.58;45.44;101307.60;1591998;89;21189;-51
2022/01/17 08:19:23;;;;;;;18.10;12.33;;;;;;;7.59;45.44;101298.95;1598780;89;21033;-51
2022/01/17 08:21:51;;;;;;;19.27;12.50;;;;;;;7.59;45.32;101270.47;1595734;89;21074;-51
2022/01/17 08:24:20;;;;;;;15.03;10.90;;;;;;;7.59;45.34;101258.81;1591591;89;21170;-51
2022/01/17 08:26:47;;;;;;;17.57;13.95;;;;;;;7.57;45.40;101258.38;1540392;92;21484;-51
2022/01/17 08:29:13;;;;;;;17.40;11.15;;;;;;;7.58;45.37;101245.45;1541790;91;21573;-51
2022/01/17 08:31:42;;;;;;;13.58;10.53;;;;;;;7.60;45.21;101228.61;1543901;91;21086;-52
2022/01/17 08:34:10;;;;;;;16.73;11.68;;;;;;;7.59;44.96;101238.09;1536581;92;21098;-51
2022/01/17 08:36:36;;;;;;;14.65;11.28;;;;;;;7.59;44.92;101248.88;1482965;95;21107;-51
2022/01/17 08:39:03;;;;;;;15.00;11.25;;;;;;;7.58;44.96;101240.27;1494965;94;21597;-51
2022/01/17 08:41:29;;;;;;;14.53;10.70;;;;;;;7.59;44.89;101228.16;1514435;94;21676;-51
2022/01/17 08:43:55;;;;;;;17.87;12.20;;;;;;;7.58;44.85;101233.80;1561043;90;21100;-52
2022/01/17 08:46:22;;;;;;;17.48;11.18;;;;;;;7.56;44.88;101229.48;1553736;90;21145;-52
2022/01/17 08:48:48;;;;;;;14.95;11.70;;;;;;;7.57;44.95;101217.81;1558835;90;21139;-51
2022/01/17 08:51:15;;;;;;;15.45;11.25;;;;;;;7.57;44.91;101202.27;1566241;89;21158;-51
2022/01/17 08:53:41;;;;;;;14.13;10.58;;;;;;;7.55;44.94;101206.59;1571297;89;21096;-51
2022/01/17 08:56:09;;;;;;;15.70;11.73;;;;;;;7.54;45.04;101201.00;1580348;89;21145;-51
2022/01/17 08:58:36;;;;;;;15.55;12.10;;;;;;;7.55;45.13;101193.65;1584466;90;21092;-51
2022/01/17 09:01:02;;;;;;;15.95;12.40;;;;;;;7.55;45.33;101176.81;1579997;89;21020;-51
2022/01/17 09:03:29;;;;;;;20.00;14.78;;;;;;;7.55;45.39;101174.66;1585314;89;21257;-51
2022/01/17 09:05:56;;;;;;;16.32;13.53;;;;;;;7.55;45.50;101176.81;1579363;89;21115;-51
2022/01/17 09:08:23;;;;;;;17.25;13.75;;;;;;;7.57;45.51;101173.79;1575043;89;21106;-51
2022/01/17 09:10:50;;;;;;;21.75;13.88;;;;;;;7.57;45.45;101162.13;1596730;88;21042;-51
2022/01/17 09:13:18;;;;;;;18.55;14.87;;;;;;;7.57;45.57;101163.43;1610931;88;21141;-51
2022/01/17 09:15:45;;;;;;;18.92;14.50;;;;;;;7.58;45.51;101172.94;1603815;87;21081;-51
2022/01/17 09:18:14;;;;;;;17.60;12.98;;;;;;;7.58;45.50;101184.59;1599870;87;21122;-52
2022/01/17 09:20:42;;;;;;;15.90;12.30;;;;;;;7.59;45.59;101177.23;1598537;87;21120;-51
2022/01/17 09:23:08;;;;;;;17.73;12.93;;;;;;;7.59;45.57;101166.88;1639292;84;21061;-52
2022/01/17 09:25:35;;;;;;;16.12;12.07;;;;;;;7.60;45.69;101176.38;1685447;83;21103;-51
2022/01/17 09:28:01;;;;;;;17.10;12.50;;;;;;;7.61;45.66;101180.68;1703710;83;21049;-51
2022/01/17 09:30:28;;;;;;;15.72;12.55;;;;;;;7.62;45.54;101170.77;1689335;83;21031;-52
2022/01/17 09:32:55;;;;;;;19.67;13.43;;;;;;;7.64;45.65;101165.15;1685844;83;21526;-51
2022/01/17 09:35:21;;;;;;;15.50;12.40;;;;;;;7.66;45.66;101158.66;1686392;83;21511;-51
2022/01/17 09:37:49;;;;;;;18.25;13.83;;;;;;;7.70;45.61;101156.06;1676932;83;21589;-52
2022/01/17 09:40:17;;;;;;;17.25;12.47;;;;;;;7.73;45.52;101157.33;1685581;83;21104;-52
2022/01/17 09:42:44;;;;;;;15.93;13.08;;;;;;;7.75;45.56;101145.23;1695805;83;21554;-52
2022/01/17 09:45:13;;;;;;;16.27;12.30;;;;;;;7.78;45.52;101134.87;1693779;83;21490;-52
2022/01/17 09:47:41;;;;;;;16.15;12.80;;;;;;;7.81;45.56;101136.13;1679739;83;21100;-53
2022/01/17 09:50:12;;;;;;;17.37;13.98;;;;;;;7.84;45.26;101129.66;1690462;83;21002;-52
2022/01/17 09:52:42;;;;;;;18.10;13.72;;;;;;;7.87;45.18;101127.03;1684829;83;21069;-52
2022/01/17 09:55:21;;;;;;;17.77;13.32;;;;;;;7.88;45.21;101108.47;1674068;84;21124;-52
2022/01/17 09:57:56;;;;;;;16.32;13.50;;;;;;;7.90;45.18;101111.48;1658949;84;21072;-52
2022/01/17 10:00:26;;;;;;;19.98;14.00;;;;;;;7.93;45.10;101116.64;1679377;84;21026;-52
2022/01/17 10:02:58;;;;;;;;;;;;;;;7.93;44.99;101108.86;1674759;85;21581;-51
2022/01/17 10:05:25;;;;;;;18.45;13.40;;;;;;;7.92;44.99;101092.91;1625793;86;20172;-52
2022/01/17 10:08:04;;;;;;;19.95;13.70;;;;;;;7.92;45.04;101099.39;1615242;88;21126;-52
2022/01/17 10:10:49;;;;;;;19.87;14.38;;;;;;;7.92;45.14;101081.25;1600784;88;21092;-52
2022/01/17 10:13:23;;;;;;;19.25;13.72;;;;;;;7.95;45.05;101085.13;1628789;86;21115;-52
2022/01/17 10:16:12;;;;;;;18.42;13.75;;;;;;;7.98;44.69;101073.44;1621380;87;21101;-52
2022/01/17 10:19:02;;;;;;;17.67;14.58;;;;;;;7.99;44.62;101077.77;1603197;88;21655;-52
2022/01/17 10:21:47;;;;;;;17.55;14.68;;;;;;;8.05;44.37;101074.27;1588079;88;21203;-52
2022/01/17 10:24:22;;;;;;;19.15;14.43;;;;;;;8.09;44.24;101058.69;1579674;89;21125;-52
2022/01/17 10:27:00;;;;;;;18.80;13.83;;;;;;;8.13;44.10;101055.20;1553061;90;21075;-52
2022/01/17 10:35:17;;;;;;;19.48;15.43;;;;;;;8.24;43.55;101039.12;1566744;89;21063;-51
2022/01/17 10:38:06;;;;;;;18.80;13.85;;;;;;;8.28;43.57;101030.07;1527948;92;21155;-52
2022/01/17 10:40:37;;;;;;;17.25;13.55;;;;;;;8.35;43.49;101040.37;1586656;89;21045;-52
2022/01/17 10:43:05;;;;;;;20.35;13.85;;;;;;;8.39;43.09;101037.33;1599870;89;21064;-53
2022/01/17 10:45:41;;;;;;;19.40;14.05;;;;;;;8.45;42.92;101025.15;1589035;89;21659;-51
2022/01/17 10:48:08;;;;;;;20.00;14.45;;;;;;;8.50;42.69;101021.22;1590532;89;21630;-52
2022/01/17 10:50:42;;;;;;;23.35;14.95;;;;;;;8.53;42.61;101013.43;1593434;89;21083;-52
2022/01/17 10:53:11;;;;;;;17.00;12.85;;;;;;;8.58;42.35;100994.78;1598206;88;21062;-51
2022/01/17 10:55:41;;;;;;;18.17;13.68;;;;;;;8.65;42.18;100993.86;1578615;89;21598;-52
2022/01/17 10:58:11;;;;;;;19.85;14.28;;;;;;;8.69;41.85;100989.05;1582922;89;21059;-54
2022/01/17 11:00:46;;;;;;;21.90;15.28;;;;;;;8.74;41.53;100995.04;1579536;89;21087;-52
2022/01/17 11:03:15;;;;;;;24.50;17.12;;;;;;;8.77;41.31;100989.84;1588094;89;21738;-52
2022/01/17 11:05:47;;;;;;;22.22;16.37;;;;;;;8.80;40.85;100984.59;1592282;88;21032;-52
2022/01/17 11:08:16;;;;;;;22.13;15.50;;;;;;;8.83;40.91;100979.38;1578947;89;21577;-52
2022/01/17 11:10:46;;;;;;;18.42;14.33;;;;;;;8.87;40.84;100971.55;1583144;89;21101;-52
2022/01/17 11:13:15;;;;;;;18.07;13.30;;;;;;;8.92;40.74;100958.53;1515543;93;21078;-53
2022/01/17 11:15:46;;;;;;;20.55;13.72;;;;;;;8.96;40.71;100966.70;1491583;93;21091;-52
2022/01/17 11:18:22;;;;;;;18.27;13.45;;;;;;;9.00;40.48;100954.11;1515541;93;21201;-52
2022/01/17 11:21:05;;;;;;;18.42;13.15;;;;;;;9.03;40.27;100964.44;1546871;92;21130;-52
2022/01/17 11:23:30;;;;;;;16.48;12.90;;;;;;;9.06;40.38;100957.92;1556446;88;21077;-52
2022/01/17 11:25:57;;;;;;;19.55;12.47;;;;;;;9.11;40.41;100952.22;1610472;87;21611;-52
2022/01/17 11:28:27;;;;;;;16.15;12.88;;;;;;;9.16;40.01;100945.25;1612733;88;21074;-52
2022/01/17 11:30:58;;;;;;;17.25;13.05;;;;;;;9.19;39.37;100930.91;1601022;87;21109;-52
2022/01/17 11:33:24;;;;;;;17.73;12.35;;;;;;;9.22;38.88;100930.89;1601047;88;21081;-52
2022/01/17 11:35:53;;;;;;;16.05;11.90;;;;;;;9.27;38.74;100925.64;1610768;87;21047;-52
2022/01/17 11:38:32;;;;;;;16.52;12.58;;;;;;;9.29;38.47;100918.25;1612450;87;21146;-52
2022/01/17 11:40:59;;;;;;;19.25;14.03;;;;;;;9.33;38.04;100919.92;1602455;87;21053;-52